DKBUL EDLW-EDLW

Flight info

Callsign DKBUL
Flight time 0h 5m
Altitude
Route
Aircraft DR40

Departure

Time 2026-04-29 14:40
Airport Dortmund Airport (EDLW)

Arrival

Time 2026-04-29 14:45
Airport Dortmund Airport (EDLW)
Time Latitude Longitude Altitude Speed Heading
2026-04-29 14:35 51.51164 7.60333 468 ft 0 kts 196°
2026-04-29 14:36 51.51161 7.60330 468 ft 5 kts 224°
2026-04-29 14:36 51.51180 7.60203 467 ft 4 kts 320°
2026-04-29 14:37 51.51254 7.60332 457 ft 27 kts 60°
2026-04-29 14:37 51.51360 7.60628 454 ft 19 kts 61°
2026-04-29 14:37 51.51406 7.60757 447 ft 12 kts 55°
2026-04-29 14:37 51.51447 7.60836 451 ft 3 kts 78°
2026-04-29 14:38 51.51474 7.60956 448 ft 19 kts 54°
2026-04-29 14:38 51.51555 7.61054 438 ft 12 kts 334°
2026-04-29 14:38 51.51565 7.60954 432 ft 11 kts 256°
2026-04-29 14:38 51.51542 7.60810 430 ft 16 kts 256°
2026-04-29 14:39 51.51526 7.60685 419 ft 0 kts 282°
2026-04-29 14:39 51.51526 7.60683 419 ft 2 kts 283°
2026-04-29 14:39 51.51581 7.60618 419 ft 22 kts
2026-04-29 14:39 51.51727 7.60909 415 ft 57 kts 59°
2026-04-29 14:40 51.51960 7.61551 600 ft 67 kts 60°
2026-04-29 14:40 51.52245 7.62097 850 ft 65 kts 50°
2026-04-29 14:40 51.52539 7.62726 1103 ft 70 kts 60°
2026-04-29 14:40 51.53012 7.62799 1278 ft 98 kts 338°
2026-04-29 14:41 51.53551 7.62165 1583 ft 97 kts 336°
2026-04-29 14:41 51.54082 7.61529 1743 ft 96 kts 332°
2026-04-29 14:41 51.54259 7.60480 1817 ft 110 kts 246°
2026-04-29 14:41 51.53927 7.59373 1908 ft 107 kts 237°
2026-04-29 14:42 51.53514 7.58371 1903 ft 109 kts 229°
2026-04-29 14:42 51.53100 7.57319 1905 ft 115 kts 234°
2026-04-29 14:42 51.52728 7.56234 1954 ft 115 kts 243°
2026-04-29 14:42 51.52406 7.55061 2079 ft 113 kts 244°
2026-04-29 14:43 51.52103 7.53972 2230 ft 106 kts 242°
2026-04-29 14:43 51.51583 7.53306 2288 ft 94 kts 171°
2026-04-29 14:43 51.50944 7.53596 1995 ft 100 kts 149°
2026-04-29 14:43 51.50316 7.54031 1820 ft 92 kts 144°
2026-04-29 14:44 51.49929 7.54636 1744 ft 83 kts 98°
2026-04-29 14:44 51.49995 7.55691 1744 ft 107 kts 71°
2026-04-29 14:44 51.50305 7.56826 1479 ft 106 kts 62°
2026-04-29 14:44 51.50638 7.57748 1218 ft 80 kts 64°
2026-04-29 14:45 51.50831 7.58352 993 ft 52 kts 63°
2026-04-29 14:45 51.51031 7.58921 854 ft 64 kts 61°
2026-04-29 14:45 51.51255 7.59564 678 ft 63 kts 59°
2026-04-29 14:45 51.51441 7.60082 565 ft 47 kts 64°
2026-04-29 14:46 51.51605 7.60559 480 ft 43 kts 63°
2026-04-29 14:46 51.51732 7.60922 428 ft 31 kts 65°
2026-04-29 14:46 51.51815 7.61162 412 ft 28 kts 60°
2026-04-29 14:46 51.51989 7.61640 504 ft 57 kts 59°
2026-04-29 14:47 51.52215 7.62213 635 ft 62 kts 61°
2026-04-29 14:47 51.52429 7.62808 850 ft 58 kts 60°
2026-04-29 14:47 51.52649 7.63445 1013 ft 68 kts 59°
2026-04-29 14:47 51.52800 7.63902 1135 ft 70 kts 65°
2026-04-29 14:48 51.53302 7.64418 1412 ft 85 kts 354°
2026-04-29 14:48 51.53820 7.63815 1500 ft 92 kts 330°
2026-04-29 14:48 51.54272 7.63110 1656 ft 95 kts 323°
2026-04-29 14:48 51.54579 7.62143 1726 ft 107 kts 265°
2026-04-29 14:49 51.54310 7.60978 1771 ft 116 kts 242°
2026-04-29 14:49 51.53948 7.59823 1959 ft 113 kts 235°
2026-04-29 14:49 51.53516 7.58690 1935 ft 124 kts 233°
2026-04-29 14:49 51.53033 7.57505 2070 ft 130 kts 232°
2026-04-29 14:50 51.52411 7.56663 2145 ft 109 kts 182°
2026-04-29 14:50 51.51705 7.56764 2067 ft 101 kts 144°
2026-04-29 14:50 51.51089 7.57385 1737 ft 101 kts 132°
2026-04-29 14:50 51.50762 7.58149 1474 ft 73 kts 83°
2026-04-29 14:51 51.50955 7.58731 1220 ft 55 kts 59°
2026-04-29 14:51 51.51148 7.59260 968 ft 63 kts 62°
2026-04-29 14:51 51.51374 7.59898 761 ft 64 kts 61°
2026-04-29 14:51 51.51585 7.60514 570 ft 52 kts 66°
2026-04-29 14:52 51.51740 7.60924 482 ft 47 kts 63°
2026-04-29 14:52 51.51918 7.61441 481 ft 57 kts 61°
2026-04-29 14:52 51.52115 7.61988 589 ft 48 kts 59°
2026-04-29 14:52 51.52243 7.62488 701 ft 50 kts 71°
2026-04-29 14:53 51.52363 7.62960 890 ft 49 kts 62°
2026-04-29 14:53 51.52485 7.63438 1100 ft 47 kts 63°
2026-04-29 14:53 51.52658 7.63825 1254 ft 43 kts 57°
2026-04-29 14:53 51.52936 7.64062 1399 ft 66 kts
2026-04-29 14:54 51.53400 7.63537 1412 ft 86 kts 329°
2026-04-29 14:54 51.53912 7.62822 1407 ft 103 kts 329°
2026-04-29 14:54 51.54439 7.62015 1435 ft 106 kts 323°
2026-04-29 14:54 51.54860 7.61056 1520 ft 104 kts 304°
2026-04-29 14:55 51.54842 7.59857 1481 ft 114 kts 242°
2026-04-29 14:55 51.54332 7.58991 1550 ft 105 kts 209°
2026-04-29 14:55 51.53750 7.58304 1591 ft 102 kts 203°
2026-04-29 14:55 51.53175 7.57629 1575 ft 105 kts 211°
2026-04-29 14:56 51.52647 7.56786 1556 ft 109 kts 219°
2026-04-29 14:56 51.52056 7.56304 1476 ft 93 kts 167°
2026-04-29 14:56 51.51488 7.56631 1519 ft 85 kts 136°
2026-04-29 14:56 51.51078 7.57139 1633 ft 76 kts 126°
2026-04-29 14:57 51.50711 7.57736 1327 ft 71 kts 103°
2026-04-29 14:57 51.50877 7.58456 1055 ft 72 kts 64°
2026-04-29 14:57 51.51031 7.58930 893 ft 72 kts 63°
2026-04-29 14:57 51.51246 7.59593 754 ft 60 kts 59°
2026-04-29 14:58 51.51458 7.60150 578 ft 50 kts 63°
2026-04-29 14:58 51.51627 7.60629 473 ft 51 kts 63°
2026-04-29 14:58 51.51774 7.61052 415 ft 30 kts 66°
2026-04-29 14:58 51.51921 7.61452 447 ft 58 kts 60°
2026-04-29 14:59 51.52127 7.62063 645 ft 64 kts 63°
2026-04-29 14:59 51.52292 7.62722 957 ft 65 kts 67°
2026-04-29 14:59 51.52456 7.63375 1275 ft 64 kts 70°
2026-04-29 14:59 51.52541 7.64055 1526 ft 68 kts 105°
2026-04-29 15:00 51.52087 7.64433 1716 ft 90 kts 162°
2026-04-29 15:00 51.51446 7.64485 1910 ft 92 kts 166°
2026-04-29 15:00 51.50900 7.63821 2107 ft 120 kts 250°
2026-04-29 15:00 51.50632 7.62453 2188 ft 135 kts 252°
2026-04-29 15:01 51.50315 7.60993 2394 ft 137 kts 249°
2026-04-29 15:01 51.50009 7.59486 2273 ft 135 kts 251°
2026-04-29 15:01 51.49962 7.58130 2186 ft 112 kts 298°
2026-04-29 15:01 51.50494 7.57436 1815 ft 102 kts 15°
2026-04-29 15:02 51.50795 7.58265 1651 ft 79 kts 74°
2026-04-29 15:02 51.51025 7.58904 1224 ft 65 kts 62°
2026-04-29 15:02 51.51268 7.59606 790 ft 70 kts 59°
2026-04-29 15:02 51.51557 7.60368 853 ft 86 kts 60°
2026-04-29 15:03 51.51820 7.61170 1141 ft 81 kts 70°
2026-04-29 15:03 51.51996 7.62003 1442 ft 75 kts 71°
2026-04-29 15:03 51.52207 7.62737 1710 ft 77 kts 66°
2026-04-29 15:03 51.52425 7.63474 2101 ft 71 kts 75°
2026-04-29 15:04 51.52277 7.64220 2357 ft 88 kts 131°
2026-04-29 15:04 51.51691 7.64563 2339 ft 92 kts 149°
2026-04-29 15:04 51.51059 7.64838 2347 ft 96 kts 158°
2026-04-29 15:04 51.50384 7.64393 2181 ft 126 kts 230°
2026-04-29 15:05 51.50337 7.63113 2232 ft 119 kts 286°
2026-04-29 15:05 51.50176 7.61742 2125 ft 131 kts 252°
2026-04-29 15:05 51.49905 7.60347 2048 ft 132 kts 250°
2026-04-29 15:05 51.49651 7.58915 1959 ft 133 kts 264°
2026-04-29 15:06 51.49879 7.57653 1966 ft 107 kts 322°
2026-04-29 15:06 51.50443 7.57262 1801 ft 67 kts 39°
2026-04-29 15:06 51.50698 7.57833 1477 ft 70 kts 66°
2026-04-29 15:06 51.50933 7.58603 1089 ft 82 kts 64°
2026-04-29 15:07 51.51208 7.59424 860 ft 77 kts 61°
2026-04-29 15:07 51.51426 7.60047 611 ft 56 kts 59°
2026-04-29 15:07 51.51581 7.60485 458 ft 39 kts 60°
2026-04-29 15:07 51.51690 7.60796 419 ft 26 kts 58°
2026-04-29 15:08 51.51795 7.61106 415 ft 50 kts 61°
2026-04-29 15:08 51.52017 7.61695 573 ft 67 kts 58°
2026-04-29 15:08 51.52266 7.62383 857 ft 71 kts 59°
2026-04-29 15:08 51.52470 7.63110 1210 ft 72 kts 56°
2026-04-29 15:09 51.52969 7.62982 1489 ft 105 kts 326°
2026-04-29 15:09 51.53444 7.61986 1638 ft 127 kts 279°
2026-04-29 15:09 51.53148 7.60652 1866 ft 134 kts 239°
2026-04-29 15:09 51.52676 7.59381 1937 ft 129 kts 233°
2026-04-29 15:10 51.52178 7.58284 1693 ft 114 kts 214°
2026-04-29 15:10 51.51557 7.58154 1380 ft 88 kts 149°
2026-04-29 15:10 51.51086 7.58665 1145 ft 80 kts 102°
2026-04-29 15:10 51.51207 7.59448 898 ft 71 kts 59°
2026-04-29 15:11 51.51446 7.60118 664 ft 60 kts 60°
2026-04-29 15:11 51.51632 7.60641 478 ft 51 kts 60°
2026-04-29 15:11 51.51764 7.61024 414 ft 25 kts 60°
2026-04-29 15:11 51.51856 7.61283 410 ft 40 kts 62°
2026-04-29 15:12 51.52032 7.61776 404 ft 46 kts 59°
2026-04-29 15:12 51.52141 7.62104 405 ft 20 kts 57°
2026-04-29 15:12 51.52189 7.62267 406 ft 14 kts 101°
2026-04-29 15:12 51.52124 7.62369 406 ft 13 kts 158°
2026-04-29 15:13 51.52022 7.62339 410 ft 22 kts 244°
2026-04-29 15:13 51.51964 7.62142 416 ft 17 kts 240°
2026-04-29 15:13 51.51893 7.61939 424 ft 21 kts 239°
2026-04-29 15:13 51.51824 7.61741 427 ft 24 kts 242°
2026-04-29 15:14 51.51745 7.61514 431 ft 22 kts 242°
2026-04-29 15:14 51.51680 7.61323 433 ft 19 kts 242°
2026-04-29 15:14 51.51613 7.61148 436 ft 18 kts 242°
2026-04-29 15:14 51.51530 7.61066 437 ft 17 kts 181°
2026-04-29 15:15 51.51463 7.60927 450 ft 14 kts 242°
2026-04-29 15:15 51.51385 7.60680 452 ft 32 kts 242°
2026-04-29 15:15 51.51278 7.60400 456 ft 28 kts 240°
2026-04-29 15:15 51.51199 7.60167 459 ft 7 kts 212°
2026-04-29 15:16 51.51158 7.60271 466 ft 7 kts 117°